Latest Weather Observations for St Kilda Harbour RMYS

IDV60901

Issued at 3:21 am EST Sunday 25 June 2017 (issued every 10 minutes, with the page automatically refreshed every 10 minutes)

About weather observations | Map of Melbourne area stations | Latest observations for Melbourne area | Other Formats
Station Details ID: 086220 Name: ST KILDA HARBOUR - RMYS Lat: -37.86 Lon: 144.96 Height: 6.4 m
Data from the previous 72 hours. | See also: Recent months for locations in Victoria
Date/Time
EST
Temp
°C
App
Temp
°C
Dew
Point
°C
Rel
Hum
%
Delta-T
°C
Wind Press
QNH
hPa
Press
MSL
hPa
Rain since
9am
mm
Dir  Spd
km/h
Gust
km/h
Spd
kts
Gust
kts
25/03:00am - - - - - NNW 20 28 11 15 - - -
25/02:30am - - - - - NNW 20 26 11 14 - - -
25/02:00am - - - - - NNW 20 28 11 15 - - -
25/01:30am - - - - - NNW 19 24 10 13 - - -
25/01:00am - - - - - NW 20 26 11 14 - - -
25/12:30am - - - - - NW 22 30 12 16 - - -
25/12:00am - - - - - NNW 15 20 8 11 - - -
 
Date/Time
EST
Temp
°C
App
Temp
°C
Dew
Point
°C
Rel
Hum
%
Delta-T
°C
Wind Press
QNH
hPa
Press
MSL
hPa
Rain since
9am
mm
Dir  Spd
km/h
Gust
km/h
Spd
kts
Gust
kts
24/11:30pm - - - - - NNW 17 20 9 11 - - -
24/11:00pm - - - - - NNW 17 20 9 11 - - -
24/10:30pm - - - - - NNW 15 20 8 11 - - -
24/10:00pm - - - - - NW 19 24 10 13 - - -
24/09:30pm - - - - - NW 19 28 10 15 - - -
24/09:00pm - - - - - NW 19 26 10 14 - - -
24/08:30pm - - - - - WNW 19 22 10 12 - - -
24/08:00pm - - - - - W 15 19 8 10 - - -
24/07:30pm - - - - - WSW 26 32 14 17 - - -
24/07:00pm - - - - - W 20 26 11 14 - - -
24/06:30pm - - - - - W 19 22 10 12 - - -
24/06:00pm - - - - - W 15 20 8 11 - - -
24/05:30pm - - - - - W 17 22 9 12 - - -
24/05:00pm - - - - - WSW 24 30 13 16 - - -
24/04:30pm - - - - - WSW 17 20 9 11 - - -
24/04:00pm - - - - - WSW 13 15 7 8 - - -
24/03:30pm - - - - - SW 15 20 8 11 - - -
24/03:00pm - - - - - SSW 11 20 6 11 - - -
24/02:30pm - - - - - SSW 13 15 7 8 - - -
24/02:00pm - - - - - SW 15 19 8 10 - - -
24/01:30pm - - - - - SW 15 19 8 10 - - -
24/01:00pm - - - - - SW 13 17 7 9 - - -
24/12:30pm - - - - - SW 19 20 10 11 - - -
24/12:00pm - - - - - WSW 19 24 10 13 - - -
24/11:30am - - - - - WSW 19 22 10 12 - - -
24/11:00am - - - - - WSW 20 24 11 13 - - -
24/10:30am - - - - - W 19 24 10 13 - - -
24/10:00am - - - - - W 22 26 12 14 - - -
24/09:30am - - - - - W 20 24 11 13 - - -
24/09:00am - - - - - W 22 28 12 15 - - -
24/08:30am - - - - - W 22 28 12 15 - - -
24/08:00am - - - - - W 22 24 12 13 - - -
24/07:30am - - - - - W 20 24 11 13 - - -
24/07:00am - - - - - WNW 22 26 12 14 - - -
24/06:30am - - - - - WNW 17 22 9 12 - - -
24/06:00am - - - - - W 19 22 10 12 - - -
24/05:30am - - - - - W 22 26 12 14 - - -
24/05:00am - - - - - W 19 22 10 12 - - -
24/04:30am - - - - - W 20 24 11 13 - - -
24/04:00am - - - - - WSW 22 28 12 15 - - -
24/03:30am - - - - - WSW 26 30 14 16 - - -
24/03:00am - - - - - SW 32 35 17 19 - - -
24/02:30am - - - - - SW 30 35 16 19 - - -
24/02:00am - - - - - SW 32 35 17 19 - - -
24/01:30am - - - - - SW 28 48 15 26 - - -
24/01:25am - - - - - W 24 48 13 26 - - -
24/01:00am - - - - - WNW 20 24 11 13 - - -
24/12:30am - - - - - NW 20 24 11 13 - - -
24/12:00am - - - - - WNW 20 24 11 13 - - -
 
Date/Time
EST
Temp
°C
App
Temp
°C
Dew
Point
°C
Rel
Hum
%
Delta-T
°C
Wind Press
QNH
hPa
Press
MSL
hPa
Rain since
9am
mm
Dir  Spd
km/h
Gust
km/h
Spd
kts
Gust
kts
23/11:30pm - - - - - WNW 26 32 14 17 - - -
23/11:00pm - - - - - WNW 26 32 14 17 - - -
23/10:30pm - - - - - W 26 30 14 16 - - -
23/10:00pm - - - - - NW 22 33 12 18 - - -
23/09:30pm - - - - - NNW 22 30 12 16 - - -
23/09:00pm - - - - - NNW 20 26 11 14 - - -
23/08:30pm - - - - - NNW 22 28 12 15 - - -
23/08:00pm - - - - - N 20 26 11 14 - - -
23/07:30pm - - - - - NNW 22 28 12 15 - - -
23/07:00pm - - - - - NNW 26 37 14 20 - - -
23/06:30pm - - - - - NNW 19 24 10 13 - - -
23/06:00pm - - - - - NNW 19 24 10 13 - - -
23/05:30pm - - - - - N 24 30 13 16 - - -
23/05:00pm - - - - - N 20 30 11 16 - - -
23/04:30pm - - - - - N 26 37 14 20 - - -
23/04:00pm - - - - - N 26 37 14 20 - - -
23/03:30pm - - - - - N 28 39 15 21 - - -
23/03:00pm - - - - - N 32 41 17 22 - - -
23/02:30pm - - - - - N 35 46 19 25 - - -
23/02:00pm - - - - - NNW 35 50 19 27 - - -
23/01:30pm - - - - - N 37 52 20 28 - - -
23/01:01pm - - - - - NNW 33 52 18 28 - - -
23/01:00pm - - - - - N 35 52 19 28 - - -
23/12:30pm - - - - - NNW 35 46 19 25 - - -
23/12:00pm - - - - - NNW 35 48 19 26 - - -
23/11:30am - - - - - NNW 33 43 18 23 - - -
23/11:00am - - - - - NNW 33 43 18 23 - - -
23/10:30am - - - - - N 24 35 13 19 - - -
23/10:00am - - - - - N 24 32 13 17 - - -
23/09:30am - - - - - N 24 33 13 18 - - -
23/09:00am - - - - - NNE 22 33 12 18 - - -
23/08:30am - - - - - NNE 20 30 11 16 - - -
23/08:00am - - - - - NNE 19 26 10 14 - - -
23/07:30am - - - - - NNE 17 24 9 13 - - -
23/07:00am - - - - - NNE 17 20 9 11 - - -
23/06:30am - - - - - NNE 13 19 7 10 - - -
23/06:00am - - - - - NE 15 20 8 11 - - -
23/05:30am - - - - - NNE 13 17 7 9 - - -
23/05:00am - - - - - N 17 26 9 14 - - -
23/04:30am - - - - - NNE 9 15 5 8 - - -
23/04:00am - - - - - NNE 15 19 8 10 - - -
23/03:30am - - - - - NNE 13 20 7 11 - - -
23/03:00am - - - - - NNE 11 15 6 8 - - -
23/02:30am - - - - - NNE 11 17 6 9 - - -
23/02:00am - - - - - NNE 11 15 6 8 - - -
23/01:30am - - - - - NNE 13 17 7 9 - - -
23/01:00am - - - - - NNE 13 17 7 9 - - -
23/12:30am - - - - - NNE 15 24 8 13 - - -
23/12:00am - - - - - NNE 15 20 8 11 - - -
 
Date/Time
EST
Temp
°C
App
Temp
°C
Dew
Point
°C
Rel
Hum
%
Delta-T
°C
Wind Press
QNH
hPa
Press
MSL
hPa
Rain since
9am
mm
Dir  Spd
km/h
Gust
km/h
Spd
kts
Gust
kts
22/11:30pm - - - - - NNE 17 22 9 12 - - -
22/11:00pm - - - - - NNE 15 20 8 11 - - -
22/10:30pm - - - - - NNE 19 24 10 13 - - -
22/10:00pm - - - - - NNE 19 24 10 13 - - -
22/09:30pm - - - - - NNE 19 26 10 14 - - -
22/09:00pm - - - - - NNE 17 22 9 12 - - -
22/08:30pm - - - - - NNE 15 19 8 10 - - -
22/08:00pm - - - - - NNE 13 17 7 9 - - -
22/07:30pm - - - - - NNE 7 13 4 7 - - -
22/07:00pm - - - - - NNE 13 17 7 9 - - -
22/06:30pm - - - - - NNE 13 17 7 9 - - -
22/06:00pm - - - - - NNE 13 19 7 10 - - -
22/05:30pm - - - - - NNE 15 20 8 11 - - -
22/05:00pm - - - - - NNE 13 19 7 10 - - -
22/04:30pm - - - - - N 11 19 6 10 - - -
22/04:00pm - - - - - N 11 17 6 9 - - -
22/03:30pm - - - - - NNE 13 20 7 11 - - -
22/03:00pm - - - - - N 11 19 6 10 - - -
22/02:30pm - - - - - N 17 22 9 12 - - -
22/02:00pm - - - - - NNW 15 20 8 11 - - -
22/01:30pm - - - - - NNW 19 24 10 13 - - -
22/01:00pm - - - - - N 13 19 7 10 - - -
22/12:30pm - - - - - NNE 15 20 8 11 - - -
22/12:00pm - - - - - N 13 17 7 9 - - -
22/11:30am - - - - - NE 9 17 5 9 - - -
22/11:00am - - - - - NNE 11 17 6 9 - - -
22/10:30am - - - - - NNE 17 22 9 12 - - -
22/10:00am - - - - - NE 15 20 8 11 - - -
22/09:30am - - - - - NNE 9 13 5 7 - - -
22/09:00am - - - - - NNE 15 19 8 10 - - -
22/08:30am - - - - - NNE 17 22 9 12 - - -
22/08:00am - - - - - NNE 19 22 10 12 - - -
22/07:30am - - - - - NNE 11 20 6 11 - - -
22/07:00am - - - - - NE 11 17 6 9 - - -
22/06:30am - - - - - N 6 7 3 4 - - -
22/06:00am - - - - - N 7 9 4 5 - - -
22/05:30am - - - - - N 6 9 3 5 - - -
22/05:00am - - - - - N 7 9 4 5 - - -
22/04:30am - - - - - N 6 7 3 4 - - -
22/04:00am - - - - - NNW 11 13 6 7 - - -
22/03:30am - - - - - WNW 6 9 3 5 - - -

Latest Capital City Observations: Canberra | Sydney | Melbourne | Brisbane | Adelaide | Perth | Hobart | Darwin

Other Formats:

Comma delimited format used in spreadsheet applications
http://www.bom.gov.au/fwo/IDV60901/IDV60901.95864.axf

JavaScript Object Notation format (JSON) in row-major order
http://www.bom.gov.au/fwo/IDV60901/IDV60901.95864.json